createdAt,value
2019-03-10T00:00:55.044Z,47.22
2019-03-10T00:06:37.355Z,47.57
2019-03-10T00:09:45.697Z,47.76
2019-03-10T00:12:14.098Z,48.00
2019-03-10T00:14:42.492Z,48.30
2019-03-10T00:17:10.975Z,48.68
2019-03-10T00:19:39.322Z,48.81
2019-03-10T00:22:27.069Z,48.98
2019-03-10T00:24:55.478Z,49.12
2019-03-10T00:27:23.872Z,49.26
2019-03-10T00:32:26.268Z,49.61
2019-03-10T00:37:28.601Z,49.89
2019-03-10T00:40:35.689Z,50.06
2019-03-10T00:43:42.677Z,50.19
2019-03-10T00:46:49.703Z,50.31
2019-03-10T00:49:56.699Z,50.43
2019-03-10T00:53:05.051Z,50.36
2019-03-10T00:55:52.764Z,50.50
2019-03-10T01:00:55.546Z,50.68
2019-03-10T01:03:43.284Z,50.82
2019-03-10T01:06:11.673Z,50.94
2019-03-10T01:08:40.072Z,50.93
2019-03-10T01:14:22.559Z,51.12
2019-03-10T01:20:24.969Z,51.17
2019-03-10T01:22:53.354Z,51.11
2019-03-10T01:25:21.756Z,51.08
2019-03-10T01:28:09.475Z,51.14
2019-03-10T01:31:17.790Z,51.13
2019-03-10T01:34:26.128Z,51.13
2019-03-10T01:37:13.718Z,51.08
2019-03-10T01:42:16.414Z,50.96
2019-03-10T01:47:18.725Z,50.89
2019-03-10T01:49:47.156Z,50.77
2019-03-10T01:52:15.549Z,50.73
2019-03-10T01:54:43.948Z,50.73
2019-03-10T01:57:12.387Z,50.73
2019-03-10T01:59:40.770Z,50.70
2019-03-10T02:02:09.158Z,50.75
2019-03-10T02:07:11.205Z,50.85
2019-03-10T02:12:13.372Z,51.09
2019-03-10T02:14:41.820Z,51.20
2019-03-10T02:17:10.204Z,51.23
2019-03-10T02:19:38.601Z,51.28
2019-03-10T02:22:07.082Z,51.36
2019-03-10T02:25:15.393Z,51.40
2019-03-10T02:27:43.825Z,51.44
2019-03-10T02:30:31.554Z,51.41
2019-03-10T02:35:33.795Z,51.42
2019-03-10T02:38:02.193Z,51.44
2019-03-10T02:40:30.625Z,51.42
2019-03-10T02:42:59.019Z,51.40
2019-03-10T02:45:27.423Z,51.39
2019-03-10T02:47:55.847Z,51.43
2019-03-10T02:50:43.437Z,51.39
2019-03-10T02:55:45.738Z,50.57
2019-03-10T02:58:14.159Z,50.29
2019-03-10T03:00:42.563Z,50.20
2019-03-10T03:03:11.029Z,50.14
2019-03-10T03:05:39.461Z,50.13
2019-03-10T03:08:07.853Z,50.28
2019-03-10T03:10:36.261Z,50.26
2019-03-10T03:13:04.698Z,50.44
2019-03-10T03:15:33.102Z,50.74
2019-03-10T03:18:01.501Z,50.85
2019-03-10T03:20:29.931Z,50.96
2019-03-10T03:22:58.319Z,51.18
2019-03-10T03:25:26.721Z,51.14
2019-03-10T03:30:48.153Z,49.89
2019-03-10T03:33:16.563Z,49.80
2019-03-10T03:36:24.934Z,50.50
2019-03-10T03:39:32.042Z,51.16
2019-03-10T03:42:00.435Z,51.39
2019-03-10T03:45:08.787Z,51.38
2019-03-10T03:47:37.185Z,51.22
2019-03-10T03:50:45.519Z,51.26
2019-03-10T03:53:13.914Z,51.28
2019-03-10T03:55:42.316Z,51.38
2019-03-10T04:05:55.021Z,51.62
2019-03-10T04:10:57.251Z,51.88
2019-03-10T04:13:25.695Z,52.00
2019-03-10T04:21:16.778Z,52.60
2019-03-10T04:23:45.178Z,52.85
2019-03-10T04:26:13.688Z,53.18
2019-03-10T04:28:42.095Z,53.46
2019-03-10T04:31:10.499Z,53.75
2019-03-10T04:33:38.915Z,53.89
2019-03-10T04:36:07.307Z,54.06
2019-03-10T04:38:35.697Z,54.29
2019-03-10T04:43:38.723Z,54.44
2019-03-10T04:46:07.165Z,54.31
2019-03-10T04:48:35.620Z,54.46
2019-03-10T04:51:04.015Z,54.44
2019-03-10T04:53:32.426Z,54.64
2019-03-10T04:56:20.083Z,54.75
2019-03-10T05:04:12.005Z,55.39
2019-03-10T05:06:40.406Z,55.49
2019-03-10T05:09:48.763Z,55.75
2019-03-10T05:12:28.929Z,55.98
2019-03-10T05:17:31.651Z,56.64
2019-03-10T05:22:34.047Z,57.05
2019-03-10T05:25:21.807Z,57.28
2019-03-10T05:27:50.204Z,57.45
2019-03-10T05:30:18.609Z,57.19
2019-03-10T05:32:47.037Z,57.22
2019-03-10T05:35:15.481Z,56.96
2019-03-10T05:37:43.826Z,56.82
2019-03-10T05:45:40.936Z,57.45
2019-03-10T05:48:09.332Z,57.04
2019-03-10T05:50:37.749Z,57.01
2019-03-10T05:53:06.150Z,57.52
2019-03-10T05:55:34.552Z,57.66
2019-03-10T06:00:42.536Z,57.67
2019-03-10T06:05:40.939Z,58.14
2019-03-10T06:08:09.333Z,58.51
2019-03-10T06:10:37.804Z,59.08
2019-03-10T06:13:06.201Z,59.52
2019-03-10T06:15:34.595Z,60.19
2019-03-10T06:18:13.160Z,60.12
2019-03-10T06:20:52.463Z,60.62
2019-03-10T06:23:20.907Z,61.21
2019-03-10T06:25:49.325Z,61.09
2019-03-10T06:28:17.726Z,60.91
2019-03-10T06:30:46.178Z,60.95
2019-03-10T06:33:14.561Z,61.11
2019-03-10T06:35:42.960Z,61.50
2019-03-10T06:38:11.370Z,61.91
2019-03-10T06:40:39.759Z,61.83
2019-03-10T06:43:08.191Z,62.22
2019-03-10T06:45:36.562Z,62.18
2019-03-10T06:48:44.873Z,62.29
2019-03-10T06:51:13.319Z,62.65
2019-03-10T06:53:41.721Z,62.44
2019-03-10T06:56:10.113Z,62.61
2019-03-10T07:01:12.942Z,62.81
2019-03-10T07:03:41.396Z,62.95
2019-03-10T07:06:09.796Z,63.08
2019-03-10T07:08:38.191Z,63.01
2019-03-10T07:11:06.612Z,63.17
2019-03-10T07:13:35.001Z,63.51
2019-03-10T07:16:03.393Z,63.67
2019-03-10T07:18:31.806Z,63.93
2019-03-10T07:21:00.214Z,64.08
2019-03-10T07:23:28.602Z,64.05
2019-03-10T07:26:16.251Z,64.27
2019-03-10T07:31:52.983Z,64.42
2019-03-10T07:34:59.831Z,64.55
2019-03-10T07:37:47.409Z,64.67
2019-03-10T07:40:34.926Z,64.50
2019-03-10T07:43:22.507Z,64.69
2019-03-10T07:46:10.026Z,64.84
2019-03-10T07:48:57.639Z,65.09
2019-03-10T07:57:09.874Z,65.38
2019-03-10T07:59:57.726Z,65.33
2019-03-10T08:05:20.751Z,65.21
2019-03-10T08:08:08.274Z,65.09
2019-03-10T08:13:34.792Z,65.23
2019-03-10T08:16:22.306Z,65.29
2019-03-10T08:21:45.273Z,65.49
2019-03-10T08:24:32.792Z,65.65
2019-03-10T08:27:20.349Z,65.59
2019-03-10T08:30:07.912Z,65.69
2019-03-10T08:32:55.600Z,65.72
2019-03-10T08:36:02.449Z,65.61
2019-03-10T08:41:31.861Z,65.34
2019-03-10T08:44:19.388Z,65.51
2019-03-10T08:47:06.930Z,65.60
2019-03-10T08:52:43.743Z,65.28
2019-03-10T08:55:31.265Z,65.24
2019-03-10T08:58:39.626Z,64.97
2019-03-10T09:01:27.158Z,65.27
2019-03-10T09:06:50.287Z,65.52
2019-03-10T09:09:57.174Z,65.99
2019-03-10T09:12:44.776Z,66.01
2019-03-10T09:18:21.522Z,66.10
2019-03-10T09:21:09.020Z,66.36
2019-03-10T09:23:56.655Z,66.60
2019-03-10T09:26:44.188Z,66.62
2019-03-10T09:29:31.753Z,66.34
2019-03-10T09:35:08.400Z,66.44
2019-03-10T09:37:55.922Z,67.04
2019-03-10T09:40:43.522Z,67.07
2019-03-10T09:43:50.458Z,66.83
2019-03-10T09:46:38.024Z,66.67
2019-03-10T09:52:14.646Z,66.54
2019-03-10T09:55:02.163Z,66.64
2019-03-10T09:57:49.740Z,66.58
2019-03-10T10:03:26.363Z,66.87
2019-03-10T10:06:13.879Z,67.16
2019-03-10T10:14:20.172Z,67.83
2019-03-10T10:17:07.694Z,68.01
2019-03-10T10:19:55.298Z,67.78
2019-03-10T10:28:26.739Z,68.29
2019-03-10T10:31:14.264Z,68.25
2019-03-10T10:39:19.905Z,68.86
2019-03-10T10:42:07.501Z,69.09
2019-03-10T10:44:55.054Z,69.26
2019-03-10T10:47:42.593Z,69.40
2019-03-10T10:50:50.956Z,69.51
2019-03-10T10:53:38.473Z,69.67
2019-03-10T10:59:01.188Z,69.19
2019-03-10T11:01:48.717Z,68.83
2019-03-10T11:09:54.171Z,68.56
2019-03-10T11:12:41.695Z,68.86
2019-03-10T11:15:50.132Z,69.15
2019-03-10T11:18:37.807Z,69.37
2019-03-10T11:21:46.234Z,69.50
2019-03-10T11:24:33.757Z,69.51
2019-03-10T11:27:21.396Z,69.52
2019-03-10T11:30:08.955Z,69.69
2019-03-10T11:32:56.614Z,69.65
2019-03-10T11:36:03.695Z,69.51
2019-03-10T11:41:47.965Z,69.57
2019-03-10T11:44:34.990Z,69.37
2019-03-10T11:47:22.538Z,69.02
2019-03-10T11:50:10.115Z,69.04
2019-03-10T11:55:32.790Z,68.77
2019-03-10T11:58:20.326Z,68.68
2019-03-10T12:01:07.915Z,68.76
2019-03-10T12:03:55.580Z,68.90
2019-03-10T12:07:04.184Z,68.87
2019-03-10T12:09:32.593Z,69.06
2019-03-10T12:12:01.080Z,68.71
2019-03-10T12:17:03.395Z,68.74
2019-03-10T12:19:32.046Z,69.02
2019-03-10T12:22:12.731Z,68.97
2019-03-10T12:24:41.464Z,68.43
2019-03-10T12:27:09.862Z,67.94
2019-03-10T12:29:49.974Z,67.81
2019-03-10T12:32:08.820Z,67.80
2019-03-10T12:34:37.300Z,67.36
2019-03-10T12:37:05.708Z,67.18
2019-03-10T12:42:08.185Z,67.01
2019-03-10T12:47:10.484Z,67.21
2019-03-10T12:49:38.886Z,67.15
2019-03-10T12:52:07.410Z,67.30
2019-03-10T12:54:55.130Z,67.46
2019-03-10T12:57:23.556Z,67.57
2019-03-10T12:59:51.965Z,67.45
2019-03-10T13:02:20.357Z,68.39
2019-03-10T13:04:48.790Z,68.62
2019-03-10T13:07:17.194Z,68.53
2019-03-10T13:09:45.610Z,68.20
2019-03-10T13:14:58.657Z,67.61
2019-03-10T13:17:18.596Z,67.72
2019-03-10T13:19:46.993Z,67.66
2019-03-10T13:22:15.404Z,67.56
2019-03-10T13:24:55.764Z,67.41
2019-03-10T13:27:24.162Z,67.03
2019-03-10T13:29:52.647Z,66.58
2019-03-10T13:32:40.358Z,66.32
2019-03-10T13:35:48.677Z,65.96
2019-03-10T13:38:17.113Z,65.18
2019-03-10T13:40:45.537Z,64.00
2019-03-10T13:43:13.935Z,63.53
2019-03-10T13:45:42.366Z,62.06
2019-03-10T13:48:10.771Z,60.84
2019-03-10T13:50:39.202Z,59.80
2019-03-10T13:53:07.661Z,58.92
2019-03-10T13:55:36.057Z,58.24
2019-03-10T13:58:23.886Z,58.00
2019-03-10T14:00:52.305Z,57.98
2019-03-10T14:03:20.703Z,57.60
2019-03-10T14:08:27.813Z,56.32
2019-03-10T14:11:15.527Z,55.75
2019-03-10T14:16:18.163Z,55.45
2019-03-10T14:18:46.597Z,55.33
2019-03-10T14:21:15.002Z,54.92
2019-03-10T14:23:43.409Z,53.87
2019-03-10T14:26:11.838Z,53.81
2019-03-10T14:28:47.206Z,53.74
2019-03-10T14:31:15.607Z,52.87
2019-03-10T14:33:44.137Z,52.73
2019-03-10T14:36:12.539Z,52.50
2019-03-10T14:38:40.957Z,52.29
2019-03-10T14:43:43.790Z,50.45
2019-03-10T14:46:31.418Z,50.32
2019-03-10T14:48:59.827Z,50.00
2019-03-10T14:51:28.226Z,50.00
2019-03-10T14:53:56.717Z,49.93
2019-03-10T14:56:25.121Z,49.58
2019-03-10T14:58:53.517Z,48.17
2019-03-10T15:03:55.994Z,46.31
2019-03-10T15:06:24.383Z,46.13
2019-03-10T15:08:52.784Z,46.12
2019-03-10T15:11:21.190Z,45.92
2019-03-10T15:13:49.766Z,44.92
2019-03-10T15:16:18.161Z,43.87
2019-03-10T15:18:46.610Z,43.66
2019-03-10T15:23:48.985Z,42.78
2019-03-10T15:26:17.387Z,42.59
2019-03-10T15:28:45.811Z,42.77
2019-03-10T15:31:14.207Z,43.31
2019-03-10T15:33:42.607Z,43.45
2019-03-10T15:36:19.702Z,42.09
2019-03-10T15:38:41.274Z,42.09
2019-03-10T15:41:12.627Z,41.60
2019-03-10T15:46:34.647Z,41.75
2019-03-10T15:49:22.333Z,41.97
2019-03-10T15:51:50.735Z,42.67
2019-03-10T15:54:19.143Z,43.16
2019-03-10T15:56:47.575Z,46.10
2019-03-10T15:59:35.291Z,52.29
2019-03-10T16:07:31.907Z,54.35
2019-03-10T16:10:00.423Z,54.34
2019-03-10T16:15:02.603Z,54.59
2019-03-10T16:20:45.287Z,54.99
2019-03-10T16:23:13.725Z,55.30
2019-03-10T16:25:42.120Z,55.48
2019-03-10T16:28:10.528Z,55.53
2019-03-10T16:33:12.886Z,55.94
2019-03-10T16:35:41.308Z,56.09
2019-03-10T16:38:09.782Z,56.43
2019-03-10T16:40:38.185Z,57.09
2019-03-10T16:43:06.583Z,57.87
2019-03-10T16:45:35.033Z,58.25
2019-03-10T16:53:27.215Z,57.72
2019-03-10T16:56:02.861Z,57.04
2019-03-10T16:58:25.755Z,57.11
2019-03-10T17:06:16.039Z,56.63
2019-03-10T17:08:44.491Z,56.58
2019-03-10T17:11:12.900Z,56.58
2019-03-10T17:13:41.290Z,56.41
2019-03-10T17:18:43.391Z,55.80
2019-03-10T17:23:45.762Z,55.59
2019-03-10T17:26:33.459Z,55.43
2019-03-10T17:29:01.828Z,55.26
2019-03-10T17:31:30.225Z,55.23
2019-03-10T17:33:58.682Z,55.50
2019-03-10T17:36:27.087Z,55.75
2019-03-10T17:38:55.485Z,55.96
2019-03-10T17:44:02.958Z,56.33
2019-03-10T17:46:43.188Z,56.41
2019-03-10T17:49:01.458Z,56.40
2019-03-10T17:51:29.884Z,56.19
2019-03-10T17:53:58.283Z,56.09
2019-03-10T18:01:55.020Z,55.60
2019-03-10T18:06:57.313Z,55.56
2019-03-10T18:09:45.000Z,55.60
2019-03-10T18:12:13.397Z,55.64
2019-03-10T18:15:21.836Z,55.76
2019-03-10T18:18:09.423Z,55.86
2019-03-10T18:20:37.850Z,56.08
2019-03-10T18:23:06.250Z,56.07
2019-03-10T18:25:34.654Z,56.15
2019-03-10T18:28:43.001Z,56.29
2019-03-10T18:31:11.387Z,56.43
2019-03-10T18:33:39.794Z,56.49
2019-03-10T18:41:20.695Z,56.51
2019-03-10T18:43:49.127Z,56.39
2019-03-10T18:46:17.522Z,56.25
2019-03-10T18:48:45.922Z,56.10
2019-03-10T18:53:48.222Z,56.11
2019-03-10T18:56:16.659Z,56.10
2019-03-10T18:58:45.070Z,56.07
2019-03-10T19:01:13.462Z,56.03
2019-03-10T19:03:41.895Z,55.98
2019-03-10T19:06:10.364Z,56.05
2019-03-10T19:08:38.769Z,56.04
2019-03-10T19:11:07.192Z,56.02
2019-03-10T19:13:35.588Z,55.55
2019-03-10T19:16:03.992Z,55.17
2019-03-10T19:21:26.313Z,54.41
2019-03-10T19:26:28.617Z,55.11
2019-03-10T19:28:57.011Z,56.54
2019-03-10T19:31:25.426Z,58.44
2019-03-10T19:33:53.848Z,60.05
2019-03-10T19:36:22.261Z,61.30
2019-03-10T19:38:50.682Z,62.26
2019-03-10T19:41:19.089Z,62.80
2019-03-10T19:43:47.490Z,63.73
2019-03-10T19:49:09.501Z,64.90
2019-03-10T19:54:11.896Z,64.55
2019-03-10T19:56:40.324Z,63.63
2019-03-10T19:59:08.721Z,63.06
2019-03-10T20:01:37.114Z,62.77
2019-03-10T20:04:45.457Z,62.60
2019-03-10T20:07:13.855Z,62.34
2019-03-10T20:09:42.260Z,61.91
2019-03-10T20:14:44.535Z,61.30
2019-03-10T20:19:46.904Z,60.32
2019-03-10T20:22:15.291Z,60.07
2019-03-10T20:24:43.739Z,59.82
2019-03-10T20:27:12.141Z,59.50
2019-03-10T20:29:40.534Z,59.03
2019-03-10T20:34:43.366Z,58.63
2019-03-10T20:37:11.787Z,58.40
2019-03-10T20:39:40.188Z,58.36
2019-03-10T20:42:08.580Z,58.42
2019-03-10T20:44:36.994Z,58.52
2019-03-10T20:47:05.395Z,58.66
2019-03-10T20:49:33.786Z,58.77
2019-03-10T20:52:23.522Z,58.89
2019-03-10T20:54:51.880Z,58.84
2019-03-10T20:57:20.272Z,58.96
2019-03-10T21:02:23.012Z,58.93
2019-03-10T21:07:26.982Z,58.99
2019-03-10T21:09:55.373Z,59.09
2019-03-10T21:12:23.840Z,59.11
2019-03-10T21:17:26.100Z,59.01
2019-03-10T21:22:28.410Z,58.96
2019-03-10T21:24:56.881Z,58.93
2019-03-10T21:27:25.270Z,58.68
2019-03-10T21:29:53.665Z,58.48
2019-03-10T21:34:56.158Z,58.04
2019-03-10T21:39:58.559Z,57.51
2019-03-10T21:42:46.407Z,57.36
2019-03-10T21:45:54.708Z,57.18
2019-03-10T21:48:42.520Z,56.96
2019-03-10T21:51:30.239Z,56.85
2019-03-10T21:56:32.749Z,56.49
2019-03-10T22:01:35.174Z,56.21
2019-03-10T22:04:03.566Z,56.14
2019-03-10T22:06:31.977Z,56.02
2019-03-10T22:09:00.366Z,56.00
2019-03-10T22:11:28.762Z,56.02
2019-03-10T22:13:57.188Z,55.96
2019-03-10T22:16:25.585Z,55.86
2019-03-10T22:18:53.974Z,55.82
2019-03-10T22:21:22.404Z,55.58
2019-03-10T22:23:58.855Z,55.28
2019-03-10T22:26:20.919Z,55.15
2019-03-10T22:31:23.814Z,54.82
2019-03-10T22:34:11.516Z,54.80
2019-03-10T22:36:39.910Z,55.38
2019-03-10T22:39:27.611Z,56.86
2019-03-10T22:41:56.070Z,58.35
2019-03-10T22:44:24.465Z,59.43
2019-03-10T22:46:52.874Z,60.35
2019-03-10T22:49:21.270Z,61.47
2019-03-10T22:51:49.665Z,63.44
2019-03-10T22:56:52.035Z,64.20
2019-03-10T22:59:20.463Z,63.99
2019-03-10T23:02:08.055Z,64.07
2019-03-10T23:04:36.484Z,63.73
2019-03-10T23:07:24.200Z,63.08
2019-03-10T23:12:46.329Z,61.30
2019-03-10T23:15:54.683Z,60.33
2019-03-10T23:18:23.075Z,59.33
2019-03-10T23:20:51.536Z,58.75
2019-03-10T23:23:20.049Z,58.02
2019-03-10T23:25:48.442Z,57.21
2019-03-10T23:28:16.837Z,55.92
2019-03-10T23:33:19.671Z,54.70
2019-03-10T23:35:48.062Z,54.54
2019-03-10T23:38:16.479Z,54.27
2019-03-10T23:40:44.889Z,53.69
2019-03-10T23:43:13.289Z,53.25
2019-03-10T23:48:15.630Z,53.19
2019-03-10T23:53:18.371Z,53.16
2019-03-10T23:55:46.801Z,52.54
2019-03-10T23:58:15.201Z,52.36
